createdAt,value
2018-05-11T00:02:14.412Z,7.37
2018-05-11T00:04:43.350Z,8.00
2018-05-11T00:07:11.527Z,7.53
2018-05-11T00:09:39.728Z,7.20
2018-05-11T00:12:07.905Z,7.30
2018-05-11T00:14:36.090Z,7.60
2018-05-11T00:17:04.258Z,7.83
2018-05-11T00:19:32.432Z,7.33
2018-05-11T00:22:00.605Z,8.10
2018-05-11T00:24:28.781Z,8.17
2018-05-11T00:26:56.949Z,8.90
2018-05-11T00:29:25.125Z,8.53
2018-05-11T00:31:53.627Z,8.57
2018-05-11T00:34:21.812Z,9.60
2018-05-11T00:36:50.746Z,9.67
2018-05-11T00:39:18.936Z,9.90
2018-05-11T00:41:47.110Z,9.00
2018-05-11T00:44:15.285Z,8.97
2018-05-11T00:46:43.451Z,8.83
2018-05-11T00:49:11.624Z,9.67
2018-05-11T00:51:39.793Z,8.70
2018-05-11T00:54:07.991Z,9.33
2018-05-11T00:56:36.164Z,9.40
2018-05-11T00:59:04.353Z,9.50
2018-05-11T01:01:32.516Z,8.00
2018-05-11T01:04:00.693Z,9.00
2018-05-11T01:06:28.876Z,9.57
2018-05-11T01:08:57.055Z,9.23
2018-05-11T01:11:25.262Z,8.80
2018-05-11T01:13:53.433Z,8.03
2018-05-11T01:16:22.369Z,8.30
2018-05-11T01:18:50.531Z,7.97
2018-05-11T01:21:18.713Z,7.70
2018-05-11T01:23:46.878Z,7.20
2018-05-11T01:26:15.053Z,6.83
2018-05-11T01:28:43.252Z,7.47
2018-05-11T01:31:11.418Z,7.40
2018-05-11T01:33:39.608Z,7.23
2018-05-11T01:36:07.792Z,7.07
2018-05-11T01:38:35.965Z,6.90
2018-05-11T01:41:04.131Z,7.90
2018-05-11T01:43:32.313Z,7.60
2018-05-11T01:46:00.492Z,7.17
2018-05-11T01:48:28.680Z,6.70
2018-05-11T01:50:57.618Z,7.10
2018-05-11T01:53:25.777Z,8.23
2018-05-11T01:55:54.323Z,7.77
2018-05-11T01:58:22.500Z,8.80
2018-05-11T02:00:51.441Z,7.83
2018-05-11T02:03:19.620Z,8.50
2018-05-11T02:05:47.788Z,8.33
2018-05-11T02:08:15.986Z,8.10
2018-05-11T02:10:44.157Z,8.00
2018-05-11T02:13:12.337Z,8.13
2018-05-11T02:15:40.533Z,7.93
2018-05-11T02:18:08.708Z,7.43
2018-05-11T02:20:36.889Z,8.47
2018-05-11T02:23:05.074Z,8.17
2018-05-11T02:25:34.009Z,7.73
2018-05-11T02:28:02.181Z,7.50
2018-05-11T02:30:30.352Z,8.50
2018-05-11T02:32:58.527Z,8.83
2018-05-11T02:35:26.712Z,8.40
2018-05-11T02:37:54.881Z,8.10
2018-05-11T02:40:23.058Z,8.53
2018-05-11T02:42:51.257Z,8.23
2018-05-11T02:45:19.432Z,8.87
2018-05-11T02:47:47.601Z,9.00
2018-05-11T02:50:15.770Z,8.53
2018-05-11T02:52:43.959Z,8.17
2018-05-11T02:55:12.121Z,8.30
2018-05-11T02:57:40.289Z,8.67
2018-05-11T03:00:08.468Z,8.30
2018-05-11T03:02:36.654Z,8.70
2018-05-11T03:05:04.831Z,8.67
2018-05-11T03:07:33.021Z,8.60
2018-05-11T03:10:01.190Z,8.53
2018-05-11T03:12:29.398Z,9.33
2018-05-11T03:14:57.580Z,8.73
2018-05-11T03:17:25.765Z,8.70
2018-05-11T03:19:53.965Z,9.20
2018-05-11T03:22:22.136Z,7.90
2018-05-11T03:24:50.305Z,9.47
2018-05-11T03:27:18.486Z,10.17
2018-05-11T03:29:46.683Z,10.93
2018-05-11T03:32:14.886Z,10.60
2018-05-11T03:34:43.842Z,9.70
2018-05-11T03:37:12.027Z,9.97
2018-05-11T03:39:40.206Z,10.30
2018-05-11T03:42:08.398Z,10.23
2018-05-11T03:44:37.339Z,11.13
2018-05-11T03:47:05.530Z,11.37
2018-05-11T03:49:33.706Z,11.10
2018-05-11T03:52:01.883Z,11.40
2018-05-11T03:54:30.384Z,9.40
2018-05-11T03:56:59.334Z,11.40
2018-05-11T03:59:27.535Z,9.80
2018-05-11T04:02:13.468Z,10.93
2018-05-11T04:04:59.501Z,10.53
2018-05-11T04:07:46.454Z,10.87
2018-05-11T04:10:15.396Z,11.57
2018-05-11T04:12:43.569Z,9.63
2018-05-11T04:15:11.757Z,9.10
2018-05-11T04:17:39.939Z,10.70
2018-05-11T04:20:08.121Z,10.20
2018-05-11T04:22:36.302Z,11.00
2018-05-11T04:25:04.505Z,10.60
2018-05-11T04:27:33.473Z,10.43
2018-05-11T04:30:01.656Z,9.43
2018-05-11T04:32:29.830Z,9.90
2018-05-11T04:34:58.025Z,9.97
2018-05-11T04:37:26.976Z,11.20
2018-05-11T04:39:55.161Z,10.80
2018-05-11T04:42:23.370Z,9.20
2018-05-11T04:44:52.309Z,10.30
2018-05-11T04:47:20.489Z,10.70
2018-05-11T04:49:48.698Z,10.33
2018-05-11T04:52:17.656Z,10.33
2018-05-11T04:54:45.837Z,10.90
2018-05-11T04:57:14.065Z,11.33
2018-05-11T04:59:42.993Z,10.67
2018-05-11T05:02:11.173Z,11.13
2018-05-11T05:04:39.353Z,11.30
2018-05-11T05:07:07.529Z,10.73
2018-05-11T05:09:35.738Z,11.30
2018-05-11T05:12:04.682Z,11.13
2018-05-11T05:14:32.864Z,10.77
2018-05-11T05:17:01.049Z,10.80
2018-05-11T05:19:29.249Z,11.07
2018-05-11T05:21:58.211Z,11.43
2018-05-11T05:24:26.409Z,12.07
2018-05-11T05:26:54.586Z,11.50
2018-05-11T05:29:22.760Z,11.50
2018-05-11T05:31:50.934Z,12.37
2018-05-11T05:34:19.125Z,12.73
2018-05-11T05:36:48.064Z,11.87
2018-05-11T05:39:16.332Z,12.40
2018-05-11T05:41:44.460Z,12.53
2018-05-11T05:44:13.401Z,12.17
2018-05-11T05:46:41.574Z,11.40
2018-05-11T05:49:09.758Z,12.30
2018-05-11T05:51:37.944Z,12.97
2018-05-11T05:54:06.120Z,12.07
2018-05-11T05:56:34.502Z,13.33
2018-05-11T05:59:02.673Z,13.10
2018-05-11T06:01:30.849Z,11.80
2018-05-11T06:03:59.051Z,13.03
2018-05-11T06:06:27.995Z,11.70
2018-05-11T06:08:56.983Z,11.80
2018-05-11T06:11:25.166Z,12.80
2018-05-11T06:13:53.370Z,12.67
2018-05-11T06:16:21.547Z,12.03
2018-05-11T06:18:49.729Z,11.70
2018-05-11T06:21:19.404Z,11.60
2018-05-11T06:23:47.593Z,12.57
2018-05-11T06:26:15.768Z,13.97
2018-05-11T06:28:43.947Z,13.07
2018-05-11T06:31:12.117Z,13.43
2018-05-11T06:33:40.318Z,11.80
2018-05-11T06:36:09.276Z,11.57
2018-05-11T06:38:37.462Z,12.10
2018-05-11T06:41:05.633Z,13.47
2018-05-11T06:43:33.810Z,12.23
2018-05-11T06:46:02.038Z,13.03
2018-05-11T06:48:30.965Z,12.77
2018-05-11T06:50:59.144Z,12.80
2018-05-11T06:53:27.354Z,11.93
2018-05-11T06:55:56.361Z,12.17
2018-05-11T06:58:24.522Z,11.40
2018-05-11T07:00:53.461Z,12.13
2018-05-11T07:03:21.642Z,10.50
2018-05-11T07:05:49.834Z,10.87
2018-05-11T07:08:18.009Z,10.43
2018-05-11T07:10:46.197Z,11.67
2018-05-11T07:13:14.384Z,11.57
2018-05-11T07:15:43.329Z,11.93
2018-05-11T07:18:11.509Z,11.07
2018-05-11T07:20:39.737Z,12.80
2018-05-11T07:23:08.682Z,12.20
2018-05-11T07:25:36.940Z,12.20
2018-05-11T07:28:06.568Z,12.50
2018-05-11T07:30:34.761Z,11.90
2018-05-11T07:33:03.030Z,13.20
2018-05-11T07:35:31.960Z,11.43
2018-05-11T07:38:00.903Z,13.97
2018-05-11T07:40:29.079Z,14.13
2018-05-11T07:42:57.265Z,12.73
2018-05-11T07:45:25.588Z,17.40
2018-05-11T07:47:54.541Z,12.80
2018-05-11T07:50:22.760Z,12.40
2018-05-11T07:52:50.938Z,11.20
2018-05-11T07:55:19.118Z,10.90
2018-05-11T07:57:47.285Z,10.07
2018-05-11T08:00:15.467Z,11.83
2018-05-11T08:02:43.659Z,11.60
2018-05-11T08:05:11.840Z,15.37
2018-05-11T08:07:40.017Z,15.27
2018-05-11T08:10:08.314Z,17.60
2018-05-11T08:12:36.493Z,12.43
2018-05-11T08:15:04.685Z,11.00
2018-05-11T08:17:33.646Z,11.23
2018-05-11T08:20:01.826Z,11.17
2018-05-11T08:22:30.053Z,11.07
2018-05-11T08:24:58.231Z,11.20
2018-05-11T08:27:26.397Z,11.17
2018-05-11T08:29:55.375Z,12.03
2018-05-11T08:32:24.912Z,10.70
2018-05-11T08:34:53.089Z,10.77
2018-05-11T08:37:21.281Z,11.13
2018-05-11T08:39:49.454Z,10.37
2018-05-11T08:42:17.624Z,10.40
2018-05-11T08:44:45.844Z,9.40
2018-05-11T08:47:14.804Z,9.47
2018-05-11T08:49:42.980Z,10.80
2018-05-11T08:52:11.152Z,10.70
2018-05-11T08:54:39.383Z,10.73
2018-05-11T08:57:08.332Z,10.33
2018-05-11T08:59:36.537Z,10.00
2018-05-11T09:02:04.713Z,9.50
2018-05-11T09:04:32.881Z,9.60
2018-05-11T09:07:01.073Z,10.90
2018-05-11T09:09:30.005Z,11.10
2018-05-11T09:11:58.188Z,12.03
2018-05-11T09:14:26.505Z,10.20
2018-05-11T09:16:54.697Z,10.07
2018-05-11T09:19:23.658Z,14.85
2018-05-11T09:21:51.834Z,11.30
2018-05-11T09:24:20.025Z,11.80
2018-05-11T09:26:48.975Z,9.60
2018-05-11T09:29:17.152Z,10.30
2018-05-11T09:31:45.365Z,8.90
2018-05-11T09:34:13.506Z,9.17
2018-05-11T09:36:41.677Z,8.07
2018-05-11T09:39:09.844Z,9.13
2018-05-11T09:41:38.011Z,7.70
2018-05-11T09:44:06.228Z,7.40
2018-05-11T09:46:34.397Z,6.80
2018-05-11T09:49:02.581Z,6.80
2018-05-11T09:51:30.760Z,6.23
2018-05-11T09:53:58.928Z,6.90
2018-05-11T09:56:27.105Z,7.77
2018-05-11T09:58:55.288Z,7.23
2018-05-11T10:01:24.236Z,8.63
2018-05-11T10:03:52.418Z,13.83
2018-05-11T10:06:20.597Z,19.60
2018-05-11T10:08:48.789Z,8.07
2018-05-11T10:11:16.957Z,6.50
2018-05-11T10:13:45.138Z,7.23
2018-05-11T10:16:13.311Z,7.23
2018-05-11T10:18:41.648Z,6.73
2018-05-11T10:21:09.814Z,7.63
2018-05-11T10:23:37.985Z,6.60
2018-05-11T10:26:06.163Z,6.40
2018-05-11T10:28:34.380Z,6.47
2018-05-11T10:31:02.526Z,6.53
2018-05-11T10:33:30.737Z,6.27
2018-05-11T10:35:58.921Z,6.90
2018-05-11T10:38:27.096Z,5.87
2018-05-11T10:40:55.277Z,5.40
2018-05-11T10:43:24.214Z,5.80
2018-05-11T10:45:52.405Z,5.43
2018-05-11T10:48:20.605Z,6.43
2018-05-11T10:50:48.819Z,6.17
2018-05-11T10:53:17.020Z,6.03
2018-05-11T10:55:45.191Z,5.87
2018-05-11T10:58:13.364Z,5.90
2018-05-11T11:00:41.549Z,5.50
2018-05-11T11:03:09.714Z,6.17
2018-05-11T11:05:37.888Z,6.00
2018-05-11T11:08:06.065Z,5.87
2018-05-11T11:10:34.254Z,5.63
2018-05-11T11:13:02.434Z,6.53
2018-05-11T11:15:30.603Z,5.60
2018-05-11T11:17:58.780Z,6.00
2018-05-11T11:20:26.993Z,6.43
2018-05-11T11:22:55.938Z,5.97
2018-05-11T11:25:24.192Z,5.20
2018-05-11T11:27:52.360Z,5.60
2018-05-11T11:30:20.528Z,5.40
2018-05-11T11:32:48.708Z,5.87
2018-05-11T11:35:16.899Z,5.40
2018-05-11T11:37:45.062Z,5.17
2018-05-11T11:40:13.225Z,5.47
2018-05-11T11:42:42.171Z,5.13
2018-05-11T11:45:10.343Z,6.07
2018-05-11T11:47:38.630Z,5.77
2018-05-11T11:50:06.724Z,7.63
2018-05-11T11:52:35.661Z,5.87
2018-05-11T11:55:03.832Z,6.17
2018-05-11T11:57:32.112Z,5.30
2018-05-11T12:00:00.628Z,5.37
2018-05-11T12:02:29.794Z,4.00
2018-05-11T12:04:58.125Z,4.90
2018-05-11T12:07:27.071Z,5.60
2018-05-11T12:09:55.932Z,5.30
2018-05-11T12:12:24.186Z,5.17
2018-05-11T12:14:53.835Z,4.90
2018-05-11T12:17:22.012Z,5.10
2018-05-11T12:19:50.201Z,5.10
2018-05-11T12:22:18.378Z,5.00
2018-05-11T12:24:47.438Z,5.10
2018-05-11T12:27:16.132Z,4.93
2018-05-11T12:29:44.296Z,5.73
2018-05-11T12:32:13.377Z,5.27
2018-05-11T12:34:43.380Z,5.67
2018-05-11T12:37:11.585Z,4.80
2018-05-11T12:39:39.757Z,5.00
2018-05-11T12:42:07.934Z,4.60
2018-05-11T12:44:36.117Z,5.20
2018-05-11T12:47:04.300Z,5.20
2018-05-11T12:49:32.477Z,5.27
2018-05-11T12:52:00.653Z,5.17
2018-05-11T12:54:28.837Z,5.40
2018-05-11T12:56:57.008Z,5.10
2018-05-11T12:59:25.188Z,5.63
2018-05-11T13:01:53.353Z,4.60
2018-05-11T13:04:21.519Z,5.00
2018-05-11T13:06:49.694Z,4.60
2018-05-11T13:09:17.868Z,5.00
2018-05-11T13:11:46.046Z,5.07
2018-05-11T13:14:14.299Z,4.23
2018-05-11T13:16:43.186Z,4.43
2018-05-11T13:19:11.357Z,4.17
2018-05-11T13:21:39.521Z,4.57
2018-05-11T13:24:07.697Z,4.80
2018-05-11T13:26:35.873Z,4.73
2018-05-11T13:29:04.053Z,4.70
2018-05-11T13:31:32.230Z,5.30
2018-05-11T13:34:00.409Z,4.60
2018-05-11T13:36:28.753Z,4.70
2018-05-11T13:38:56.897Z,4.90
2018-05-11T13:41:25.073Z,4.60
2018-05-11T13:43:54.013Z,4.57
2018-05-11T13:46:22.183Z,7.63
2018-05-11T13:48:50.380Z,5.10
2018-05-11T13:51:18.586Z,4.17
2018-05-11T13:53:46.757Z,4.67
2018-05-11T13:56:14.933Z,4.43
2018-05-11T13:58:43.881Z,4.73
2018-05-11T14:01:12.105Z,4.50
2018-05-11T14:03:41.052Z,5.20
2018-05-11T14:06:09.221Z,4.50
2018-05-11T14:08:37.397Z,5.20
2018-05-11T14:11:05.565Z,5.63
2018-05-11T14:13:33.743Z,5.50
2018-05-11T14:16:01.916Z,5.03
2018-05-11T14:18:30.082Z,5.03
2018-05-11T14:20:58.257Z,8.37
2018-05-11T14:23:26.498Z,6.00
2018-05-11T14:25:55.442Z,5.30
2018-05-11T14:28:23.627Z,5.77
2018-05-11T14:30:51.818Z,5.53
2018-05-11T14:33:19.986Z,4.10
2018-05-11T14:35:48.163Z,5.43
2018-05-11T14:38:16.332Z,5.97
2018-05-11T14:40:44.514Z,4.13
2018-05-11T14:43:12.684Z,5.40
2018-05-11T14:45:40.859Z,5.40
2018-05-11T14:48:09.810Z,5.47
2018-05-11T14:50:37.973Z,7.53
2018-05-11T14:53:07.172Z,6.60
2018-05-11T14:55:36.113Z,7.30
2018-05-11T14:58:04.319Z,7.40
2018-05-11T15:00:33.272Z,9.13
2018-05-11T15:03:01.453Z,7.33
2018-05-11T15:05:29.617Z,6.30
2018-05-11T15:07:57.799Z,7.30
2018-05-11T15:10:25.979Z,7.23
2018-05-11T15:12:54.142Z,6.50
2018-05-11T15:15:22.320Z,7.00
2018-05-11T15:17:50.489Z,7.10
2018-05-11T15:20:18.674Z,6.87
2018-05-11T15:22:46.839Z,6.37
2018-05-11T15:25:15.007Z,6.10
2018-05-11T15:27:43.184Z,6.10
2018-05-11T15:30:11.354Z,5.70
2018-05-11T15:32:39.527Z,5.80
2018-05-11T15:35:07.702Z,7.00
2018-05-11T15:37:35.887Z,6.33
2018-05-11T15:40:04.070Z,6.37
2018-05-11T15:42:32.251Z,5.80
2018-05-11T15:45:00.434Z,7.20
2018-05-11T15:47:28.615Z,6.20
2018-05-11T15:49:56.793Z,6.30
2018-05-11T15:52:24.963Z,5.60
2018-05-11T15:54:53.151Z,5.33
2018-05-11T15:57:22.116Z,5.70
2018-05-11T15:59:50.290Z,7.80
2018-05-11T16:02:18.458Z,5.67
2018-05-11T16:04:46.648Z,4.93
2018-05-11T16:07:14.833Z,5.47
2018-05-11T16:09:43.016Z,5.30
2018-05-11T16:12:11.952Z,8.30
2018-05-11T16:14:40.122Z,5.40
2018-05-11T16:17:08.311Z,6.33
2018-05-11T16:19:36.488Z,4.90
2018-05-11T16:22:04.661Z,5.40
2018-05-11T16:24:32.841Z,5.73
2018-05-11T16:27:01.782Z,5.40
2018-05-11T16:29:30.716Z,6.93
2018-05-11T16:31:58.887Z,7.67
2018-05-11T16:34:27.059Z,6.03
2018-05-11T16:36:55.407Z,5.80
2018-05-11T16:39:24.340Z,6.00
2018-05-11T16:41:52.523Z,5.97
2018-05-11T16:44:20.725Z,5.23
2018-05-11T16:46:48.931Z,5.40
2018-05-11T16:49:17.093Z,5.50
2018-05-11T16:51:46.067Z,5.30
2018-05-11T16:54:14.239Z,5.80
2018-05-11T16:56:42.408Z,5.50
2018-05-11T16:59:10.650Z,5.50
2018-05-11T17:01:38.836Z,5.70
2018-05-11T17:04:07.005Z,6.10
2018-05-11T17:06:35.186Z,6.93
2018-05-11T17:09:03.373Z,6.50
2018-05-11T17:11:31.546Z,6.93
2018-05-11T17:13:59.757Z,6.80
2018-05-11T17:16:28.724Z,6.70
2018-05-11T17:18:56.889Z,6.80
2018-05-11T17:21:25.054Z,6.47
2018-05-11T17:23:54.001Z,10.57
2018-05-11T17:26:22.949Z,10.47
2018-05-11T17:28:51.155Z,12.53
2018-05-11T17:31:20.102Z,7.53
2018-05-11T17:33:48.278Z,7.00
2018-05-11T17:36:16.455Z,7.03
2018-05-11T17:38:44.629Z,7.80
2018-05-11T17:41:12.804Z,8.60
2018-05-11T17:43:40.967Z,7.93
2018-05-11T17:46:09.152Z,8.40
2018-05-11T17:48:37.329Z,8.13
2018-05-11T17:51:05.542Z,7.77
2018-05-11T17:53:34.508Z,9.43
2018-05-11T17:56:02.688Z,8.80
2018-05-11T17:58:30.855Z,8.87
2018-05-11T18:00:59.020Z,8.70
2018-05-11T18:03:27.192Z,9.03
2018-05-11T18:05:55.357Z,8.00
2018-05-11T18:08:23.564Z,8.40
2018-05-11T18:10:51.753Z,7.50
2018-05-11T18:13:20.696Z,8.27
2018-05-11T18:15:48.878Z,7.70
2018-05-11T18:18:17.066Z,8.30
2018-05-11T18:20:45.260Z,9.00
2018-05-11T18:23:13.442Z,7.63
2018-05-11T18:25:41.635Z,10.23
2018-05-11T18:28:10.577Z,8.00
2018-05-11T18:30:38.761Z,15.27
2018-05-11T18:33:06.934Z,19.47
2018-05-11T18:35:35.105Z,16.93
2018-05-11T18:38:03.310Z,9.57
2018-05-11T18:40:32.257Z,9.70
2018-05-11T18:43:00.431Z,9.83
2018-05-11T18:45:28.629Z,8.50
2018-05-11T18:47:56.797Z,8.70
2018-05-11T18:50:24.977Z,9.40
2018-05-11T18:52:53.987Z,10.03
2018-05-11T18:55:22.175Z,9.87
2018-05-11T18:57:51.364Z,8.80
2018-05-11T19:00:20.334Z,18.07
2018-05-11T19:02:48.515Z,10.00
2018-05-11T19:05:16.687Z,10.33
2018-05-11T19:07:44.860Z,9.20
2018-05-11T19:10:13.037Z,9.70
2018-05-11T19:12:41.229Z,9.50
2018-05-11T19:15:09.411Z,9.70
2018-05-11T19:17:38.376Z,10.00
2018-05-11T19:20:06.545Z,10.90
2018-05-11T19:22:34.723Z,10.97
2018-05-11T19:25:02.926Z,10.23
2018-05-11T19:27:31.874Z,11.50
2018-05-11T19:30:00.045Z,9.73
2018-05-11T19:32:28.272Z,11.47
2018-05-11T19:34:57.218Z,11.30
2018-05-11T19:37:25.391Z,11.63
2018-05-11T19:39:53.566Z,14.30
2018-05-11T19:42:21.749Z,12.23
2018-05-11T19:44:49.936Z,15.47
2018-05-11T19:47:18.145Z,16.30
2018-05-11T19:49:47.100Z,12.23
2018-05-11T19:52:15.274Z,10.93
2018-05-11T19:54:43.445Z,12.10
2018-05-11T19:57:11.689Z,11.60
2018-05-11T19:59:40.606Z,11.37
2018-05-11T20:02:08.784Z,11.10
2018-05-11T20:04:37.012Z,12.70
2018-05-11T20:07:05.205Z,11.60
2018-05-11T20:09:33.375Z,10.33
2018-05-11T20:12:01.563Z,11.57
2018-05-11T20:14:29.757Z,10.70
2018-05-11T20:16:57.930Z,10.73
2018-05-11T20:19:26.141Z,12.37
2018-05-11T20:21:54.349Z,12.33
2018-05-11T20:24:22.529Z,13.00
2018-05-11T20:26:50.738Z,11.53
2018-05-11T20:29:18.953Z,11.80
2018-05-11T20:31:47.897Z,11.57
2018-05-11T20:34:16.074Z,11.20
2018-05-11T20:36:44.248Z,11.03
2018-05-11T20:39:12.424Z,15.03
2018-05-11T20:41:40.694Z,15.93
2018-05-11T20:44:09.600Z,12.10
2018-05-11T20:46:37.807Z,14.10
2018-05-11T20:49:06.759Z,12.30
2018-05-11T20:51:34.941Z,11.30
2018-05-11T20:54:03.119Z,11.57
2018-05-11T20:56:31.297Z,10.27
2018-05-11T20:58:59.485Z,11.47
2018-05-11T21:01:27.683Z,11.30
2018-05-11T21:03:56.622Z,11.70
2018-05-11T21:06:24.834Z,12.10
2018-05-11T21:08:53.013Z,12.17
2018-05-11T21:11:21.957Z,15.10
2018-05-11T21:13:50.175Z,12.60
2018-05-11T21:16:18.378Z,11.07
2018-05-11T21:18:47.324Z,10.73
2018-05-11T21:21:16.286Z,11.50
2018-05-11T21:23:44.481Z,11.20
2018-05-11T21:26:12.661Z,11.70
2018-05-11T21:28:40.842Z,11.40
2018-05-11T21:31:09.012Z,14.60
2018-05-11T21:33:37.314Z,11.83
2018-05-11T21:36:06.171Z,12.57
2018-05-11T21:38:34.361Z,11.40
2018-05-11T21:41:02.608Z,11.97
2018-05-11T21:43:31.501Z,12.03
2018-05-11T21:45:59.694Z,11.57
2018-05-11T21:48:27.896Z,16.87
2018-05-11T21:50:56.091Z,12.40
2018-05-11T21:53:24.280Z,11.50
2018-05-11T21:55:52.467Z,11.33
2018-05-11T21:58:20.641Z,11.80
2018-05-11T22:00:48.823Z,10.97
2018-05-11T22:03:17.001Z,11.70
2018-05-11T22:05:45.183Z,10.87
2018-05-11T22:08:13.356Z,11.97
2018-05-11T22:10:41.550Z,11.57
2018-05-11T22:13:09.736Z,11.10
2018-05-11T22:15:37.933Z,13.57
2018-05-11T22:18:06.877Z,18.90
2018-05-11T22:20:35.054Z,15.53
2018-05-11T22:23:03.229Z,15.63
2018-05-11T22:25:31.405Z,17.97
2018-05-11T22:27:59.596Z,15.57
2018-05-11T22:30:27.775Z,12.70
2018-05-11T22:32:55.986Z,11.97
2018-05-11T22:35:24.184Z,13.00
2018-05-11T22:37:52.375Z,11.70
2018-05-11T22:40:20.554Z,11.20
2018-05-11T22:42:48.732Z,12.37
2018-05-11T22:45:16.916Z,18.00
2018-05-11T22:47:45.108Z,12.13
2018-05-11T22:50:13.287Z,17.20
2018-05-11T22:52:42.233Z,13.67
2018-05-11T22:55:11.193Z,12.60
2018-05-11T22:57:39.366Z,10.70
2018-05-11T23:00:08.390Z,11.60
2018-05-11T23:02:36.571Z,12.47
2018-05-11T23:05:04.749Z,11.63
2018-05-11T23:07:32.921Z,12.60
2018-05-11T23:10:01.101Z,12.00
2018-05-11T23:12:29.289Z,12.53
2018-05-11T23:14:57.480Z,11.77
2018-05-11T23:17:25.655Z,11.60
2018-05-11T23:19:53.829Z,12.90
2018-05-11T23:22:22.007Z,11.50
2018-05-11T23:24:51.055Z,12.20
2018-05-11T23:27:19.162Z,12.43
2018-05-11T23:29:47.344Z,11.93
2018-05-11T23:32:15.528Z,12.77
2018-05-11T23:34:44.478Z,11.57
2018-05-11T23:37:12.657Z,12.83
2018-05-11T23:39:40.919Z,11.30
2018-05-11T23:42:09.092Z,12.10
2018-05-11T23:44:37.268Z,12.67
2018-05-11T23:47:05.444Z,12.13
2018-05-11T23:49:33.621Z,13.47
2018-05-11T23:52:01.797Z,12.77
2018-05-11T23:54:29.981Z,12.77
2018-05-11T23:56:58.153Z,12.33
2018-05-11T23:59:26.337Z,12.90
